Durban, South Africa
Current Conditions -  °F | °C
As of 11:00 AM on Thursday 23 Oct 2014 (Local Time) from FALE Reporting Station
Clear Clear  
Wind Chill: 73°   Ceiling: Unl
Heat Index: 73°   Visibility: 6mi
Dew Point: 61°   Wind: 18mph
Humidity: 65%   Direction: 60°ENE
Pressure: 30"   Gusts: 30mph
Location:  29.87°S, 30.99°E
Report Text: FALE 230900Z 06016G26KT CAVOK 23/16 Q1016 NOSIG
Loading
Personal Weather Stations






























Interactive Weather Map
Tropical Storm Tracking
New forecast layout! Learn more

10-Day Weather Forecast

Advertisements
Track Severe Weather on mobile